createdAt,value
2023-03-08T00:00:45.231Z,4.18
2023-03-08T00:05:45.853Z,5.82
2023-03-08T00:10:47.299Z,4.78
2023-03-08T00:15:49.368Z,6.18
2023-03-08T00:20:59.823Z,5.85
2023-03-08T00:26:00.546Z,6.10
2023-03-08T00:31:05.168Z,7.13
2023-03-08T00:36:08.379Z,6.47
2023-03-08T00:41:11.908Z,6.97
2023-03-08T00:46:14.792Z,4.75
2023-03-08T00:51:16.710Z,7.00
2023-03-08T00:56:17.375Z,5.90
2023-03-08T01:01:20.625Z,4.78
2023-03-08T01:06:23.322Z,4.70
2023-03-08T01:11:26.023Z,5.80
2023-03-08T01:16:30.767Z,9.60
2023-03-08T01:21:33.630Z,10.15
2023-03-08T01:26:34.366Z,13.23
2023-03-08T01:31:36.402Z,8.63
2023-03-08T01:36:37.272Z,7.35
2023-03-08T01:41:38.061Z,8.27
2023-03-08T01:46:40.042Z,9.45
2023-03-08T01:51:49.421Z,5.03
2023-03-08T01:56:52.306Z,5.28
2023-03-08T02:01:54.804Z,7.45
2023-03-08T02:06:56.304Z,10.25
2023-03-08T02:12:02.189Z,5.60
2023-03-08T02:17:05.383Z,6.10
2023-03-08T02:22:10.170Z,5.40
2023-03-08T02:27:18.364Z,6.70
2023-03-08T02:32:19.324Z,4.32
2023-03-08T02:37:20.037Z,6.25
2023-03-08T02:42:23.259Z,5.60
2023-03-08T02:47:24.013Z,7.40
2023-03-08T02:52:24.750Z,4.95
2023-03-08T02:57:26.766Z,7.90
2023-03-08T03:02:28.872Z,7.22
2023-03-08T03:07:36.924Z,9.50
2023-03-08T03:12:39.038Z,5.72
2023-03-08T03:17:42.856Z,6.75
2023-03-08T03:22:44.861Z,6.57
2023-03-08T03:27:46.935Z,7.47
2023-03-08T03:32:48.301Z,6.57
2023-03-08T03:37:53.983Z,8.07
2023-03-08T03:42:56.920Z,8.27
2023-03-08T03:47:58.387Z,7.95
2023-03-08T03:53:00.513Z,9.93
2023-03-08T03:58:03.726Z,7.03
2023-03-08T04:03:05.827Z,10.82
2023-03-08T04:08:09.538Z,8.25
2023-03-08T04:13:15.328Z,14.18
2023-03-08T04:18:16.853Z,11.30
2023-03-08T04:23:19.494Z,13.18
2023-03-08T04:28:22.984Z,12.07
2023-03-08T04:33:23.872Z,14.18
2023-03-08T04:38:25.012Z,16.75
2023-03-08T04:43:30.784Z,13.52
2023-03-08T04:48:32.030Z,18.00
2023-03-08T04:53:33.312Z,16.90
2023-03-08T04:58:37.193Z,16.75
2023-03-08T05:03:38.726Z,19.35
2023-03-08T05:08:39.625Z,17.08
2023-03-08T05:13:42.465Z,17.38
2023-03-08T05:18:43.881Z,18.35
2023-03-08T05:23:45.540Z,20.65
2023-03-08T05:28:49.725Z,14.73
2023-03-08T05:33:53.787Z,19.73
2023-03-08T05:39:02.351Z,20.40
2023-03-08T05:44:13.121Z,19.42
2023-03-08T05:49:14.315Z,23.65
2023-03-08T05:54:15.613Z,24.50
2023-03-08T05:59:20.707Z,21.45
2023-03-08T06:04:21.595Z,25.02
2023-03-08T06:09:24.128Z,23.35
2023-03-08T06:14:26.875Z,24.80
2023-03-08T06:19:27.696Z,24.95
2023-03-08T06:24:30.752Z,31.38
2023-03-08T06:29:36.201Z,26.17
2023-03-08T06:34:37.329Z,24.95
2023-03-08T06:39:39.329Z,22.35
2023-03-08T06:44:42.222Z,22.73
2023-03-08T06:49:44.252Z,21.58
2023-03-08T06:54:45.498Z,17.15
2023-03-08T06:59:47.643Z,17.27
2023-03-08T07:04:49.692Z,16.95
2023-03-08T07:09:50.577Z,14.98
2023-03-08T07:14:54.266Z,13.13
2023-03-08T07:19:54.950Z,10.98
2023-03-08T07:24:55.612Z,13.48
2023-03-08T07:29:57.794Z,8.68
2023-03-08T07:34:59.074Z,9.00
2023-03-08T07:39:59.805Z,16.80
2023-03-08T07:45:01.878Z,14.15
2023-03-08T07:50:02.557Z,17.73
2023-03-08T07:55:03.350Z,17.63
2023-03-08T08:00:08.295Z,19.35
2023-03-08T08:05:12.706Z,18.10
2023-03-08T08:10:13.512Z,15.15
2023-03-08T08:15:16.839Z,19.42
2023-03-08T08:20:17.857Z,16.75
2023-03-08T08:25:18.586Z,17.95
2023-03-08T08:30:21.269Z,21.13
2023-03-08T08:35:23.949Z,16.70
2023-03-08T08:40:28.443Z,17.77
2023-03-08T08:45:30.590Z,19.02
2023-03-08T08:50:31.303Z,18.08
2023-03-08T08:55:32.015Z,17.35
2023-03-08T09:00:35.083Z,15.50
2023-03-08T09:05:39.418Z,18.75
2023-03-08T09:10:41.557Z,14.63
2023-03-08T09:15:43.560Z,15.57
2023-03-08T09:20:44.273Z,16.48
2023-03-08T09:25:45.060Z,14.70
2023-03-08T09:30:47.037Z,16.15
2023-03-08T09:35:56.649Z,16.65
2023-03-08T09:41:11.321Z,15.65
2023-03-08T09:46:27.564Z,18.83
2023-03-08T09:51:35.221Z,15.60
2023-03-08T09:56:41.853Z,13.25
2023-03-08T10:01:53.330Z,13.73
2023-03-08T10:07:05.091Z,12.88
2023-03-08T10:12:16.986Z,13.63
2023-03-08T10:17:22.054Z,12.88
2023-03-08T10:22:27.893Z,14.82
2023-03-08T10:27:33.138Z,11.95
2023-03-08T10:32:43.952Z,10.57
2023-03-08T10:37:51.785Z,10.10
2023-03-08T10:42:54.969Z,8.10
2023-03-08T10:47:59.331Z,8.20
2023-03-08T10:53:10.284Z,7.90
2023-03-08T10:58:30.440Z,7.75
2023-03-08T11:03:33.368Z,9.45
2023-03-08T11:08:35.502Z,10.52
2023-03-08T11:13:39.024Z,10.65
2023-03-08T11:18:52.471Z,11.43
2023-03-08T11:24:03.402Z,10.88
2023-03-08T11:29:14.812Z,10.95
2023-03-08T11:34:42.230Z,13.20
2023-03-08T11:39:47.596Z,12.52
2023-03-08T11:45:03.007Z,16.08
2023-03-08T11:50:10.863Z,16.00
2023-03-08T11:55:29.848Z,16.42
2023-03-08T12:00:35.276Z,19.23
2023-03-08T12:05:42.027Z,19.35
2023-03-08T12:10:48.127Z,20.65
2023-03-08T12:15:55.443Z,26.10
2023-03-08T12:21:08.891Z,25.13
2023-03-08T12:26:17.074Z,28.80
2023-03-08T12:31:28.919Z,110.85
2023-03-08T12:36:42.775Z,31.98
2023-03-08T12:41:43.637Z,31.40
2023-03-08T12:47:01.854Z,28.05
2023-03-08T12:52:07.720Z,27.52
2023-03-08T12:57:19.959Z,27.30
2023-03-08T13:02:28.449Z,27.55
2023-03-08T13:07:38.169Z,24.58
2023-03-08T13:13:37.604Z,22.92
2023-03-08T13:18:39.993Z,18.67
2023-03-08T13:23:47.973Z,20.50
2023-03-08T13:28:49.144Z,18.80
2023-03-08T13:33:51.684Z,20.63
2023-03-08T13:39:02.430Z,16.77
2023-03-08T13:44:04.905Z,16.55
2023-03-08T13:49:15.278Z,17.60
2023-03-08T13:54:23.519Z,17.17
2023-03-08T13:59:24.265Z,17.98
2023-03-08T14:04:27.693Z,19.10
2023-03-08T14:09:29.853Z,15.18
2023-03-08T14:14:33.637Z,14.55
2023-03-08T14:19:37.369Z,14.65
2023-03-08T14:24:40.523Z,13.05
2023-03-08T14:29:43.638Z,12.07
2023-03-08T14:34:45.964Z,12.98
2023-03-08T14:39:49.550Z,11.02
2023-03-08T14:44:52.609Z,8.82
2023-03-08T14:49:57.845Z,10.98
2023-03-08T14:55:03.278Z,11.50
2023-03-08T15:00:14.107Z,12.35
2023-03-08T15:05:25.547Z,13.45
2023-03-08T15:10:32.779Z,10.57
2023-03-08T15:15:33.534Z,13.85
2023-03-08T15:20:34.338Z,11.82
2023-03-08T15:25:40.808Z,12.02
2023-03-08T15:31:04.200Z,13.13
2023-03-08T15:36:08.953Z,10.50
2023-03-08T15:41:13.689Z,13.60
2023-03-08T15:46:15.444Z,13.05
2023-03-08T15:51:20.157Z,11.75
2023-03-08T15:56:23.010Z,14.48
2023-03-08T16:01:25.621Z,16.63
2023-03-08T16:06:27.479Z,16.42
2023-03-08T16:11:29.479Z,16.70
2023-03-08T16:16:44.439Z,21.33
2023-03-08T16:21:46.069Z,18.00
2023-03-08T16:26:48.099Z,18.88
2023-03-08T16:31:49.145Z,20.98
2023-03-08T16:36:49.835Z,21.52
2023-03-08T16:41:52.089Z,19.77
2023-03-08T16:46:53.148Z,23.02
2023-03-08T16:51:53.797Z,22.83
2023-03-08T16:56:55.868Z,25.50
2023-03-08T17:01:56.506Z,23.55
2023-03-08T17:06:57.782Z,22.40
2023-03-08T17:11:59.773Z,22.58
2023-03-08T17:17:00.422Z,25.48
2023-03-08T17:22:01.126Z,21.30
2023-03-08T17:27:03.113Z,24.70
2023-03-08T17:32:03.908Z,19.98
2023-03-08T17:37:11.395Z,19.33
2023-03-08T17:42:13.458Z,20.30
2023-03-08T17:47:14.675Z,19.65
2023-03-08T17:52:15.917Z,21.80
2023-03-08T17:57:18.674Z,20.67
2023-03-08T18:02:19.824Z,24.15
2023-03-08T18:07:21.422Z,22.45
2023-03-08T18:12:23.418Z,22.38
2023-03-08T18:17:24.318Z,23.88
2023-03-08T18:22:24.980Z,23.02
2023-03-08T18:27:27.012Z,22.27
2023-03-08T18:32:28.065Z,21.48
2023-03-08T18:37:30.548Z,20.42
2023-03-08T18:42:33.233Z,19.98
2023-03-08T18:47:34.548Z,25.05
2023-03-08T18:52:35.241Z,23.80
2023-03-08T18:57:37.324Z,22.77
2023-03-08T19:02:38.051Z,27.33
2023-03-08T19:07:41.025Z,25.13
2023-03-08T19:12:43.794Z,22.13
2023-03-08T19:17:44.607Z,22.45
2023-03-08T19:22:45.321Z,26.27
2023-03-08T19:27:47.919Z,27.95
2023-03-08T19:32:49.434Z,23.13
2023-03-08T19:37:50.210Z,25.08
2023-03-08T19:42:53.668Z,28.20
2023-03-08T19:47:54.409Z,28.08
2023-03-08T19:52:55.130Z,30.25
2023-03-08T19:57:57.229Z,26.00
2023-03-08T20:02:59.533Z,29.65
2023-03-08T20:08:00.401Z,29.27
2023-03-08T20:13:02.617Z,30.15
2023-03-08T20:18:03.387Z,28.83
2023-03-08T20:23:04.156Z,29.92
2023-03-08T20:28:06.453Z,29.58
2023-03-08T20:33:07.458Z,27.88
2023-03-08T20:38:08.341Z,31.23
2023-03-08T20:43:11.042Z,26.48
2023-03-08T20:48:11.732Z,29.60
2023-03-08T20:53:12.467Z,32.40
2023-03-08T20:58:14.554Z,35.42
2023-03-08T21:03:15.389Z,30.15
2023-03-08T21:08:16.915Z,31.67
2023-03-08T21:13:18.907Z,29.40
2023-03-08T21:18:19.564Z,32.60
2023-03-08T21:23:23.064Z,30.17
2023-03-08T21:28:25.299Z,36.92
2023-03-08T21:33:26.009Z,35.35
2023-03-08T21:38:26.694Z,32.92
2023-03-08T21:43:28.702Z,35.58
2023-03-08T21:48:29.343Z,37.35
2023-03-08T21:53:29.976Z,36.15
2023-03-08T21:58:32.002Z,32.10
2023-03-08T22:03:33.516Z,34.55
2023-03-08T22:08:34.148Z,36.60
2023-03-08T22:13:36.674Z,35.30
2023-03-08T22:18:37.315Z,35.60
2023-03-08T22:23:38.057Z,36.63
2023-03-08T22:28:40.014Z,36.40
2023-03-08T22:33:41.088Z,33.45
2023-03-08T22:38:42.789Z,37.47
2023-03-08T22:43:45.596Z,36.90
2023-03-08T22:48:47.593Z,35.97
2023-03-08T22:53:48.252Z,37.35
2023-03-08T22:58:50.851Z,36.88
2023-03-08T23:03:55.075Z,36.70
2023-03-08T23:08:56.527Z,34.10
2023-03-08T23:13:58.596Z,37.20
2023-03-08T23:18:59.389Z,35.72
2023-03-08T23:24:01.300Z,34.92
2023-03-08T23:29:04.259Z,32.83
2023-03-08T23:34:06.354Z,35.45
2023-03-08T23:39:07.240Z,30.27
2023-03-08T23:44:11.088Z,32.17
2023-03-08T23:49:11.725Z,33.53
2023-03-08T23:54:13.366Z,31.75
2023-03-08T23:59:18.794Z,35.00
